Time;durP1;ratioP1;P1;durP2;ratioP2;P2;SDS_P1;SDS_P2;PMS_P1;PMS_P2;Temp;Humidity;BMP_temperature;BMP_pressure;BME280_temperature;BME280_humidity;BME280_pressure;Samples;Min_cycle;Max_cycle;Signal;HPM_P1;HPM_P2
2021/05/27 00:01:44;;;;;;;2.03;1.92;;;9.40;99.90;;;;;;5104819;28;20223;-70
2021/05/27 00:04:10;;;;;;;2.30;2.10;;;9.40;99.90;;;;;;5108799;28;20217;-71
2021/05/27 00:06:36;;;;;;;3.00;2.78;;;9.40;99.90;;;;;;5102687;28;20299;-70
2021/05/27 00:09:03;;;;;;;2.78;2.30;;;9.40;99.90;;;;;;5102786;28;20307;-71
2021/05/27 00:11:31;;;;;;;2.33;2.22;;;9.40;99.90;;;;;;5105226;28;20238;-70
2021/05/27 00:13:57;;;;;;;2.75;2.13;;;9.40;99.90;;;;;;5104991;28;20204;-71
2021/05/27 00:16:24;;;;;;;2.35;2.25;;;9.40;99.90;;;;;;5108767;28;20227;-71
2021/05/27 00:18:52;;;;;;;2.22;2.13;;;9.40;99.90;;;;;;5108116;28;20897;-71
2021/05/27 00:21:19;;;;;;;2.30;2.10;;;9.40;99.90;;;;;;5108246;28;20206;-71
2021/05/27 00:23:45;;;;;;;2.38;2.17;;;9.40;99.90;;;;;;5108567;28;20403;-71
2021/05/27 00:26:12;;;;;;;2.92;2.72;;;9.40;99.90;;;;;;5108361;28;20231;-71
2021/05/27 00:28:38;;;;;;;2.50;2.30;;;9.30;99.90;;;;;;5108527;28;20295;-70
2021/05/27 00:31:05;;;;;;;2.00;1.90;;;9.30;99.90;;;;;;5107700;28;20200;-71
2021/05/27 00:33:32;;;;;;;1.70;1.60;;;9.30;99.90;;;;;;5108339;28;20199;-71
2021/05/27 00:35:58;;;;;;;7.82;2.15;;;9.30;99.90;;;;;;5108017;28;20616;-71
2021/05/27 00:38:25;;;;;;;1.92;1.83;;;9.30;99.90;;;;;;5102717;28;20249;-70
2021/05/27 00:40:51;;;;;;;2.10;2.00;;;9.30;99.90;;;;;;5099337;28;20724;-71
2021/05/27 00:43:18;;;;;;;2.50;2.30;;;9.30;99.90;;;;;;5108268;28;20214;-71
2021/05/27 00:45:44;;;;;;;2.78;2.58;;;9.30;99.90;;;;;;5107449;28;20260;-71
2021/05/27 00:48:56;;;;;;;2.00;1.90;;;9.30;99.90;;;;;;5108050;28;20764;-71
2021/05/27 00:51:00;;;;;;;2.60;2.40;;;9.30;99.90;;;;;;5107746;28;20207;-71
2021/05/27 00:53:27;;;;;;;3.80;3.03;;;9.30;99.90;;;;;;5098750;28;20201;-71
2021/05/27 00:55:54;;;;;;;2.95;2.75;;;9.30;99.90;;;;;;5103912;28;20228;-71
2021/05/27 00:58:23;;;;;;;3.60;3.30;;;9.20;99.90;;;;;;5107386;28;20200;-71
2021/05/27 01:00:50;;;;;;;3.10;2.80;;;9.30;99.90;;;;;;5101324;28;20199;-71
2021/05/27 01:03:16;;;;;;;3.63;3.28;;;9.20;99.90;;;;;;5106878;28;20204;-71
2021/05/27 01:05:43;;;;;;;3.70;3.40;;;9.20;99.90;;;;;;5107735;28;20249;-71
2021/05/27 01:08:10;;;;;;;2.72;2.53;;;9.20;99.90;;;;;;5107699;28;20200;-71
2021/05/27 01:10:36;;;;;;;3.13;2.85;;;9.30;99.90;;;;;;5106978;28;20302;-71
2021/05/27 01:13:03;;;;;;;3.88;3.30;;;9.20;99.90;;;;;;5104646;28;20340;-71
2021/05/27 01:15:30;;;;;;;3.88;3.58;;;9.20;99.90;;;;;;5104144;28;20302;-71
2021/05/27 01:17:58;;;;;;;3.40;3.10;;;9.20;99.90;;;;;;5107097;28;20195;-71
2021/05/27 01:20:24;;;;;;;3.10;2.90;;;9.20;99.90;;;;;;5107252;28;20192;-71
2021/05/27 01:22:52;;;;;;;3.28;2.50;;;9.20;99.90;;;;;;5106452;28;20672;-71
2021/05/27 01:25:18;;;;;;;2.20;2.10;;;9.20;99.90;;;;;;5107088;28;20195;-72
2021/05/27 01:27:44;;;;;;;2.65;2.55;;;9.20;99.90;;;;;;5107470;28;20212;-72
2021/05/27 01:30:12;;;;;;;2.63;2.50;;;9.20;99.90;;;;;;5106737;28;20206;-72
2021/05/27 01:32:38;;;;;;;2.65;2.45;;;9.20;99.90;;;;;;5106873;28;20206;-71
2021/05/27 01:35:07;;;;;;;2.97;2.70;;;9.10;99.90;;;;;;5106869;28;20198;-71
2021/05/27 01:37:36;;;;;;;2.95;2.85;;;9.10;99.90;;;;;;5103695;28;20249;-72
2021/05/27 01:40:04;;;;;;;2.30;2.20;;;9.10;99.90;;;;;;5106485;28;20215;-71
2021/05/27 01:42:31;;;;;;;5.10;2.63;;;9.10;99.90;;;;;;5106254;28;20637;-71
2021/05/27 01:44:58;;;;;;;2.50;2.30;;;9.10;99.90;;;;;;5105867;28;20637;-71
2021/05/27 01:47:24;;;;;;;2.55;2.45;;;9.10;99.90;;;;;;5105715;28;20773;-72
2021/05/27 01:49:51;;;;;;;2.65;2.45;;;9.20;99.90;;;;;;5106681;28;20286;-71
2021/05/27 01:52:17;;;;;;;3.15;2.85;;;9.30;99.90;;;;;;5106514;28;20292;-71
2021/05/27 01:54:44;;;;;;;3.03;2.83;;;9.30;99.90;;;;;;5103616;28;20248;-71
2021/05/27 01:57:11;;;;;;;2.60;2.40;;;9.20;99.90;;;;;;5106778;28;20224;-71
2021/05/27 01:59:37;;;;;;;2.47;2.38;;;9.10;99.90;;;;;;5105596;28;20199;-72
2021/05/27 02:02:04;;;;;;;2.78;2.65;;;9.10;99.90;;;;;;5106641;28;20574;-71
2021/05/27 02:04:30;;;;;;;2.40;1.80;;;9.10;99.90;;;;;;5106359;28;20290;-72
2021/05/27 02:06:56;;;;;;;3.47;3.00;;;9.00;99.90;;;;;;5106282;28;20208;-72
2021/05/27 02:09:23;;;;;;;3.72;2.38;;;9.00;99.90;;;;;;5106585;28;20298;-71
2021/05/27 02:11:50;;;;;;;2.40;2.30;;;9.00;99.90;;;;;;5105444;28;20219;-71
2021/05/27 02:14:19;;;;;;;2.38;2.20;;;9.00;99.90;;;;;;5106191;28;20199;-71
2021/05/27 02:16:46;;;;;;;2.35;2.25;;;9.00;99.90;;;;;;5106272;28;20468;-71
2021/05/27 02:19:13;;;;;;;3.50;2.67;;;9.00;99.90;;;;;;5106476;28;20212;-71
2021/05/27 02:21:39;;;;;;;2.47;2.33;;;9.00;99.90;;;;;;5105560;28;20286;-71
2021/05/27 02:24:07;;;;;;;3.28;2.58;;;9.00;99.90;;;;;;5106199;28;20248;-72
2021/05/27 02:26:34;;;;;;;3.80;3.50;;;9.00;99.90;;;;;;5106688;28;20334;-71
2021/05/27 02:29:01;;;;;;;3.50;3.28;;;9.00;99.90;;;;;;5104913;28;20660;-71
2021/05/27 02:31:28;;;;;;;3.63;3.33;;;9.00;99.90;;;;;;5106428;28;20207;-71
2021/05/27 02:33:55;;;;;;;2.92;2.75;;;8.90;99.90;;;;;;5105662;28;20211;-72
2021/05/27 02:36:21;;;;;;;2.95;2.60;;;8.90;99.90;;;;;;5101553;28;20771;-71
2021/05/27 02:38:48;;;;;;;4.28;3.97;;;8.90;99.90;;;;;;5103854;28;20203;-71
2021/05/27 02:41:15;;;;;;;3.80;3.50;;;8.90;99.90;;;;;;5099608;28;20196;-71
2021/05/27 02:43:41;;;;;;;4.50;3.47;;;8.90;99.90;;;;;;5106115;28;20210;-71
2021/05/27 02:46:08;;;;;;;3.80;3.50;;;8.90;99.90;;;;;;5105284;28;20244;-71
2021/05/27 02:48:35;;;;;;;4.32;4.03;;;8.90;99.90;;;;;;5096022;28;20201;-71
2021/05/27 02:51:03;;;;;;;5.43;5.00;;;9.00;99.90;;;;;;5101660;28;20201;-70
2021/05/27 02:53:29;;;;;;;4.50;4.10;;;9.00;99.90;;;;;;5106024;28;20279;-70
2021/05/27 02:55:56;;;;;;;3.80;3.50;;;9.00;99.90;;;;;;5105120;28;20794;-70
2021/05/27 02:58:22;;;;;;;4.75;4.45;;;9.00;99.90;;;;;;5105265;28;20207;-70
2021/05/27 03:00:48;;;;;;;4.13;3.80;;;9.00;99.90;;;;;;5106274;27;20290;-70
2021/05/27 03:03:16;;;;;;;3.10;2.90;;;9.00;99.90;;;;;;5105277;28;20315;-70
2021/05/27 03:05:44;;;;;;;3.15;2.95;;;8.90;99.90;;;;;;5105142;28;20596;-70
2021/05/27 03:08:10;;;;;;;3.20;3.00;;;8.90;99.90;;;;;;5104944;28;20566;-71
2021/05/27 03:10:36;;;;;;;4.10;3.80;;;8.90;99.90;;;;;;5105104;28;20204;-71
2021/05/27 03:13:03;;;;;;;3.38;3.17;;;8.90;99.90;;;;;;5103996;28;20424;-70
2021/05/27 03:15:29;;;;;;;3.28;3.10;;;8.90;99.90;;;;;;5102574;28;20318;-71
2021/05/27 03:17:59;;;;;;;4.57;3.83;;;9.00;99.90;;;;;;5104857;28;20290;-70
2021/05/27 03:20:25;;;;;;;3.30;3.10;;;9.10;99.90;;;;;;5105029;28;20361;-71
2021/05/27 03:22:52;;;;;;;3.88;3.58;;;9.00;99.90;;;;;;5105593;28;20295;-71
2021/05/27 03:25:19;;;;;;;3.08;2.88;;;8.90;99.90;;;;;;5104162;28;20204;-71
2021/05/27 03:27:45;;;;;;;3.65;3.35;;;8.90;99.90;;;;;;5104939;28;20210;-70
2021/05/27 03:30:13;;;;;;;2.60;2.40;;;8.90;99.90;;;;;;5105382;28;20653;-71
2021/05/27 03:32:40;;;;;;;4.53;4.13;;;8.90;99.90;;;;;;5105991;28;20225;-70
2021/05/27 03:35:07;;;;;;;4.70;4.30;;;8.90;99.90;;;;;;5105474;28;20196;-71
2021/05/27 03:37:33;;;;;;;5.60;5.10;;;8.90;99.90;;;;;;5106859;28;20255;-70
2021/05/27 03:40:13;;;;;;;4.50;4.18;;;9.00;99.90;;;;;;5101362;28;20196;-70
2021/05/27 03:42:41;;;;;;;4.97;4.47;;;9.00;99.90;;;;;;5108626;28;20210;-71
2021/05/27 03:45:10;;;;;;;4.38;4.07;;;8.90;99.90;;;;;;5108730;28;20200;-71
2021/05/27 03:47:37;;;;;;;4.03;3.72;;;9.00;99.90;;;;;;5106500;28;20292;-71
2021/05/27 03:50:04;;;;;;;4.22;3.83;;;9.00;99.90;;;;;;5106749;28;20211;-71
2021/05/27 03:52:31;;;;;;;3.85;3.42;;;9.00;99.90;;;;;;5108451;28;20210;-71
2021/05/27 03:54:57;;;;;;;3.88;3.30;;;9.10;99.90;;;;;;5108258;28;20206;-70
2021/05/27 03:57:24;;;;;;;3.72;3.42;;;9.10;99.90;;;;;;5108675;28;20227;-71
2021/05/27 04:02:40;;;;;;;3.88;3.58;;;9.20;99.90;;;;;;5106515;28;20288;-70
2021/05/27 04:07:51;;;;;;;3.38;3.08;;;9.20;99.90;;;;;;5105911;28;20281;-71
2021/05/27 04:10:17;;;;;;;4.18;3.85;;;9.20;99.90;;;;;;5107690;28;20311;-71
2021/05/27 04:12:45;;;;;;;3.50;3.20;;;9.30;99.90;;;;;;5107976;28;20674;-71
2021/05/27 04:15:23;;;;;;;3.20;3.00;;;9.50;99.90;;;;;;5096310;28;20871;-71
2021/05/27 04:17:54;;;;;;;5.63;3.13;;;10.20;99.90;;;;;;5106684;28;20200;-71
2021/05/27 04:20:21;;;;;;;2.70;2.50;;;10.90;99.90;;;;;;5105643;28;20204;-71
2021/05/27 04:22:48;;;;;;;2.45;2.25;;;11.30;99.90;;;;;;5105692;28;20218;-71
2021/05/27 04:25:15;;;;;;;2.75;2.55;;;11.40;99.90;;;;;;5105588;28;20196;-71
2021/05/27 04:27:42;;;;;;;3.42;2.90;;;11.50;99.90;;;;;;5107482;28;20233;-71
2021/05/27 04:30:15;;;;;;;2.55;2.35;;;11.30;99.90;;;;;;5105872;28;20286;-71
2021/05/27 04:32:57;;;;;;;2.42;2.33;;;11.20;99.90;;;;;;5102933;28;20199;-71
2021/05/27 04:35:25;;;;;;;4.10;3.70;;;11.50;99.90;;;;;;5106263;28;20294;-71
2021/05/27 04:37:56;;;;;;;3.10;2.90;;;11.20;99.90;;;;;;5105214;28;20826;-71
2021/05/27 04:40:22;;;;;;;3.30;3.03;;;10.90;99.90;;;;;;5104443;28;20200;-71
2021/05/27 04:42:49;;;;;;;3.90;3.53;;;10.40;99.90;;;;;;5106256;28;20235;-71
2021/05/27 04:45:16;;;;;;;3.42;3.13;;;10.10;99.90;;;;;;5104896;28;20705;-71
2021/05/27 04:47:43;;;;;;;3.70;3.40;;;9.80;99.90;;;;;;5107152;28;20230;-71
2021/05/27 04:50:11;;;;;;;3.42;3.20;;;9.70;99.90;;;;;;5105109;28;20237;-71
2021/05/27 04:52:37;;;;;;;3.55;3.05;;;9.60;99.90;;;;;;5107638;28;20656;-71
2021/05/27 04:55:05;;;;;;;3.65;3.35;;;9.60;99.90;;;;;;5105959;28;20737;-71
2021/05/27 04:57:32;;;;;;;3.80;3.53;;;9.70;99.90;;;;;;5108301;28;20223;-71
2021/05/27 04:59:58;;;;;;;3.58;3.28;;;9.70;99.90;;;;;;5107676;28;20206;-71
2021/05/27 05:02:25;;;;;;;3.47;3.17;;;9.70;99.90;;;;;;5101436;28;20228;-71
2021/05/27 05:04:52;;;;;;;3.58;3.28;;;9.80;99.90;;;;;;5103910;28;20202;-71
2021/05/27 05:07:18;;;;;;;3.63;3.40;;;9.90;99.90;;;;;;5103206;28;20260;-71
2021/05/27 05:09:45;;;;;;;3.03;2.72;;;10.10;99.90;;;;;;5104634;28;20214;-71
2021/05/27 05:12:11;;;;;;;3.17;2.95;;;10.10;99.90;;;;;;5107136;28;20231;-71
2021/05/27 05:14:38;;;;;;;3.58;2.50;;;10.30;99.90;;;;;;5105528;28;20666;-71
2021/05/27 05:17:04;;;;;;;2.90;2.70;;;10.50;99.90;;;;;;5105222;28;20258;-72
2021/05/27 05:19:31;;;;;;;3.90;3.60;;;10.70;99.90;;;;;;5106800;28;20693;-73
2021/05/27 05:22:02;;;;;;;4.72;2.60;;;10.90;99.90;;;;;;5104076;28;20258;-72
2021/05/27 05:24:29;;;;;;;2.97;2.72;;;11.10;99.90;;;;;;5097307;28;20196;-72
2021/05/27 05:26:56;;;;;;;2.40;2.30;;;13.20;99.90;;;;;;5103181;28;20208;-72
2021/05/27 05:29:23;;;;;;;2.45;2.25;;;15.10;99.90;;;;;;5102146;28;20199;-72
2021/05/27 05:31:50;;;;;;;5.70;2.40;;;17.40;96.10;;;;;;5104122;28;20225;-72
2021/05/27 05:34:16;;;;;;;2.00;1.90;;;19.20;92.40;;;;;;5106470;28;20636;-72
2021/05/27 05:36:44;;;;;;;2.23;1.90;;;20.80;88.40;;;;;;5106896;28;20685;-72
2021/05/27 05:39:10;;;;;;;1.80;1.70;;;21.20;83.70;;;;;;5104395;28;20622;-72
2021/05/27 05:41:38;;;;;;;2.20;2.10;;;22.40;79.00;;;;;;5106568;28;20672;-72
2021/05/27 05:44:04;;;;;;;1.93;1.60;;;23.40;76.20;;;;;;5100956;28;20622;-72
2021/05/27 05:46:31;;;;;;;1.90;1.70;;;23.20;73.30;;;;;;5105882;27;21201;-72
2021/05/27 05:48:57;;;;;;;1.90;1.80;;;22.70;74.30;;;;;;5102202;28;21245;-71
2021/05/27 05:51:24;;;;;;;2.03;1.93;;;21.80;75.60;;;;;;5105656;28;20634;-72
2021/05/27 05:53:51;;;;;;;3.40;1.80;;;20.50;78.00;;;;;;5106759;28;20629;-74
2021/05/27 05:56:18;;;;;;;8.57;2.80;;;19.30;83.00;;;;;;5102909;28;20668;-72
2021/05/27 05:58:44;;;;;;;2.33;2.13;;;18.80;82.80;;;;;;5103692;28;21048;-72
2021/05/27 06:01:10;;;;;;;2.53;2.43;;;18.70;83.80;;;;;;5105115;28;20640;-72
2021/05/27 06:03:37;;;;;;;2.27;2.17;;;18.60;86.00;;;;;;5105152;28;20698;-72
2021/05/27 06:06:03;;;;;;;2.03;1.90;;;18.60;86.00;;;;;;5102260;28;21342;-72
2021/05/27 06:08:30;;;;;;;2.67;2.10;;;18.50;84.10;;;;;;5106774;28;21045;-72
2021/05/27 06:10:57;;;;;;;1.77;1.67;;;19.10;85.90;;;;;;5111767;27;20652;-72
2021/05/27 06:13:23;;;;;;;1.90;1.80;;;20.00;82.80;;;;;;5098941;28;21021;-72
2021/05/27 06:15:49;;;;;;;2.40;2.20;;;19.90;82.10;;;;;;5103364;28;20684;-72
2021/05/27 06:18:16;;;;;;;2.00;1.90;;;19.40;81.90;;;;;;5105487;28;21308;-72
2021/05/27 06:20:43;;;;;;;3.57;2.03;;;19.00;81.70;;;;;;5105817;28;20668;-72
2021/05/27 06:23:09;;;;;;;2.03;1.93;;;18.30;84.60;;;;;;5105608;28;20633;-72
2021/05/27 06:25:37;;;;;;;2.00;1.90;;;17.30;87.40;;;;;;5104398;28;20617;-72
2021/05/27 06:28:05;;;;;;;2.00;1.90;;;17.50;88.60;;;;;;5105443;28;20705;-72
2021/05/27 06:30:31;;;;;;;1.80;1.70;;;18.10;85.30;;;;;;5106456;28;21280;-72
2021/05/27 06:32:59;;;;;;;2.40;1.60;;;19.30;83.30;;;;;;5102574;28;21252;-72
2021/05/27 06:35:25;;;;;;;1.83;1.73;;;20.60;80.10;;;;;;5101932;28;20626;-71
2021/05/27 06:37:52;;;;;;;2.50;2.30;;;21.00;77.10;;;;;;5104414;28;20680;-71
2021/05/27 06:40:20;;;;;;;1.90;1.80;;;20.60;75.90;;;;;;5101096;28;20652;-71
2021/05/27 06:42:47;;;;;;;1.70;1.50;;;19.80;80.70;;;;;;5096898;28;20637;-71
2021/05/27 06:45:16;;;;;;;1.60;1.50;;;20.60;79.10;;;;;;5102163;28;20614;-71
2021/05/27 06:47:42;;;;;;;1.40;1.30;;;20.50;78.30;;;;;;5103780;28;20611;-71
2021/05/27 06:50:10;;;;;;;2.20;1.47;;;20.70;75.20;;;;;;5106101;28;20692;-71
2021/05/27 06:52:36;;;;;;;1.70;1.60;;;20.20;74.10;;;;;;5105875;28;21190;-71
2021/05/27 06:55:05;;;;;;;1.80;1.70;;;18.60;78.10;;;;;;5105288;28;20662;-71
2021/05/27 06:57:31;;;;;;;1.60;1.50;;;19.20;79.40;;;;;;5103054;28;20680;-71
2021/05/27 06:59:58;;;;;;;1.63;1.53;;;20.50;74.30;;;;;;5106233;28;20712;-71
2021/05/27 07:02:25;;;;;;;2.10;1.53;;;20.50;75.50;;;;;;5106483;28;20726;-71
2021/05/27 07:04:51;;;;;;;1.47;1.40;;;20.00;73.30;;;;;;5106308;28;20632;-71
2021/05/27 07:07:17;;;;;;;1.90;1.80;;;20.60;75.00;;;;;;5107776;28;20611;-71
2021/05/27 07:09:44;;;;;;;1.80;1.70;;;21.80;72.60;;;;;;5098719;28;20625;-71
2021/05/27 07:12:11;;;;;;;1.87;1.77;;;21.40;70.90;;;;;;5100779;28;20631;-71
2021/05/27 07:14:37;;;;;;;2.03;1.93;;;20.40;74.40;;;;;;5102559;28;20730;-70
2021/05/27 07:17:04;;;;;;;1.73;1.63;;;19.90;76.90;;;;;;5106462;28;20680;-71
2021/05/27 07:19:32;;;;;;;1.90;1.80;;;19.90;77.00;;;;;;5104456;28;20680;-71
2021/05/27 07:21:59;;;;;;;2.20;1.70;;;19.20;78.20;;;;;;5103463;28;20626;-70
2021/05/27 07:24:26;;;;;;;1.80;1.70;;;18.50;79.10;;;;;;5107095;28;20634;-71
2021/05/27 07:26:52;;;;;;;2.00;1.90;;;17.70;79.00;;;;;;5106898;28;21150;-70
2021/05/27 07:29:18;;;;;;;2.00;1.90;;;17.20;80.50;;;;;;5104692;28;20689;-70
2021/05/27 07:31:45;;;;;;;1.80;1.70;;;16.80;82.80;;;;;;5099336;28;20736;-70
2021/05/27 07:34:11;;;;;;;2.13;1.93;;;16.40;85.30;;;;;;5104444;28;20736;-70
2021/05/27 07:36:38;;;;;;;2.20;2.00;;;16.00;86.20;;;;;;5104435;28;20741;-70
2021/05/27 07:39:05;;;;;;;2.03;1.93;;;16.10;84.70;;;;;;5106049;28;20291;-69
2021/05/27 07:41:31;;;;;;;2.70;1.60;;;16.60;85.70;;;;;;5104510;28;20676;-69
2021/05/27 07:43:58;;;;;;;1.90;1.80;;;18.20;84.30;;;;;;5105172;28;20636;-69
2021/05/27 07:46:24;;;;;;;1.70;1.60;;;19.30;76.80;;;;;;5105575;28;20657;-69
2021/05/27 07:48:50;;;;;;;1.60;1.50;;;18.50;77.60;;;;;;5105630;28;20718;-69
2021/05/27 07:51:17;;;;;;;1.90;1.80;;;17.70;79.90;;;;;;5102900;28;20635;-69
2021/05/27 07:53:44;;;;;;;1.95;1.85;;;16.50;80.90;;;;;;5105470;28;20737;-70
2021/05/27 07:56:11;;;;;;;1.88;1.77;;;15.50;83.90;;;;;;5106051;28;20223;-70
2021/05/27 07:58:37;;;;;;;2.25;2.13;;;15.10;85.50;;;;;;5105320;28;20195;-70
2021/05/27 08:01:05;;;;;;;4.28;1.92;;;14.60;88.20;;;;;;5101384;28;20231;-70
2021/05/27 08:03:31;;;;;;;1.88;1.77;;;14.10;88.00;;;;;;5105482;28;20192;-70
2021/05/27 08:05:58;;;;;;;2.45;2.00;;;13.80;89.10;;;;;;5105410;28;20203;-70
2021/05/27 08:08:24;;;;;;;3.55;2.10;;;13.70;90.00;;;;;;5105225;28;20856;-70
2021/05/27 08:10:52;;;;;;;1.52;1.42;;;15.00;90.30;;;;;;5105882;28;20257;-71
2021/05/27 08:13:19;;;;;;;1.80;1.50;;;17.20;85.90;;;;;;5098523;28;20634;-71
2021/05/27 08:15:45;;;;;;;1.63;1.53;;;19.30;78.00;;;;;;5093351;28;20655;-71
2021/05/27 08:18:12;;;;;;;1.70;1.60;;;20.70;73.90;;;;;;5105042;28;20745;-70
2021/05/27 08:20:38;;;;;;;1.70;1.60;;;20.80;70.20;;;;;;5105268;28;20736;-70
2021/05/27 08:23:05;;;;;;;1.60;1.50;;;21.20;69.80;;;;;;5109044;28;20677;-70
2021/05/27 08:25:31;;;;;;;1.60;1.50;;;20.20;70.20;;;;;;5108427;28;20625;-71
2021/05/27 08:27:58;;;;;;;1.47;1.37;;;20.20;71.10;;;;;;5108375;28;20736;-70
2021/05/27 08:30:27;;;;;;;1.90;1.80;;;20.40;71.00;;;;;;5107455;28;20734;-70
2021/05/27 08:32:54;;;;;;;1.60;1.50;;;20.70;70.60;;;;;;5100871;28;20681;-70
2021/05/27 08:35:21;;;;;;;2.00;1.90;;;21.00;68.90;;;;;;5104746;28;20637;-69
2021/05/27 08:37:47;;;;;;;1.50;1.40;;;21.80;68.90;;;;;;5107238;28;21131;-69
2021/05/27 08:40:15;;;;;;;2.00;1.43;;;22.40;65.20;;;;;;5102446;28;20596;-70
2021/05/27 08:42:43;;;;;;;1.77;1.67;;;22.80;64.40;;;;;;5106655;28;20625;-70
2021/05/27 08:45:13;;;;;;;1.80;1.70;;;22.20;64.70;;;;;;5104150;28;20628;-70
2021/05/27 08:47:40;;;;;;;1.83;1.73;;;21.00;64.10;;;;;;5102346;28;21211;-70
2021/05/27 08:50:09;;;;;;;1.67;1.60;;;19.90;68.20;;;;;;5107975;28;20668;-70
2021/05/27 08:52:36;;;;;;;2.20;2.00;;;19.60;70.00;;;;;;5106826;28;20743;-69
2021/05/27 08:55:04;;;;;;;1.57;1.43;;;19.40;68.90;;;;;;5108056;28;20633;-70
2021/05/27 08:57:31;;;;;;;1.70;1.60;;;20.40;71.00;;;;;;5107775;28;20744;-70
2021/05/27 08:59:59;;;;;;;2.00;1.90;;;21.00;65.60;;;;;;5103842;28;20677;-70
2021/05/27 09:02:27;;;;;;;2.17;1.87;;;20.50;64.00;;;;;;5097149;28;20649;-70
2021/05/27 09:04:54;;;;;;;3.07;1.83;;;19.50;68.40;;;;;;5104450;28;20637;-71
2021/05/27 09:07:42;;;;;;;2.17;2.00;;;18.10;70.20;;;;;;5101562;28;21201;-69
2021/05/27 09:10:10;;;;;;;2.63;2.00;;;17.20;72.80;;;;;;5102623;28;20648;-70
2021/05/27 09:12:38;;;;;;;1.80;1.70;;;16.50;75.20;;;;;;5101053;28;21359;-70
2021/05/27 09:15:19;;;;;;;2.20;1.73;;;16.70;77.70;;;;;;5100429;28;20640;-70
2021/05/27 09:17:48;;;;;;;1.43;1.43;;;18.30;77.00;;;;;;5106022;28;20691;-70
2021/05/27 09:20:18;;;;;;;2.07;1.97;;;20.00;70.70;;;;;;5106992;28;20634;-70
2021/05/27 09:22:47;;;;;;;1.50;1.40;;;20.40;67.70;;;;;;5104594;28;20639;-70
2021/05/27 09:25:29;;;;;;;2.00;1.90;;;20.10;66.00;;;;;;5107613;28;20641;-70
2021/05/27 09:27:57;;;;;;;2.00;1.90;;;19.50;68.80;;;;;;5104335;28;21036;-70
2021/05/27 09:30:25;;;;;;;3.07;2.80;;;18.70;73.20;;;;;;5106043;28;21605;-70
2021/05/27 09:32:53;;;;;;;5.83;1.80;;;18.30;72.60;;;;;;5107760;28;20625;-69
2021/05/27 09:35:21;;;;;;;1.73;1.63;;;18.80;71.40;;;;;;5106831;28;20633;-70
2021/05/27 09:37:51;;;;;;;2.10;2.00;;;18.90;70.40;;;;;;5107198;28;20691;-70
2021/05/27 09:40:43;;;;;;;2.27;1.87;;;18.60;68.80;;;;;;5103930;28;20630;-70
2021/05/27 09:43:12;;;;;;;1.60;1.50;;;18.70;70.40;;;;;;5086901;28;20630;-70
2021/05/27 09:45:41;;;;;;;1.60;1.60;;;18.30;70.00;;;;;;5106649;28;20641;-70
2021/05/27 09:48:24;;;;;;;1.90;1.80;;;17.80;72.30;;;;;;5107244;28;20644;-69
2021/05/27 09:50:54;;;;;;;1.92;1.83;;;17.30;69.30;;;;;;5104569;28;20662;-70
2021/05/27 09:53:26;;;;;;;1.98;1.83;;;16.90;72.40;;;;;;5101890;28;20657;-69
2021/05/27 09:55:53;;;;;;;1.98;1.70;;;16.70;72.80;;;;;;5107120;28;20199;-69
2021/05/27 09:58:21;;;;;;;2.67;1.65;;;16.50;76.40;;;;;;5107088;28;20214;-70
2021/05/27 10:00:50;;;;;;;1.80;1.70;;;16.40;76.30;;;;;;5102399;28;20303;-69
2021/05/27 10:03:39;;;;;;;2.85;1.52;;;16.20;76.60;;;;;;5106644;28;20261;-70
2021/05/27 10:06:07;;;;;;;1.95;1.85;;;16.10;77.00;;;;;;5094985;28;20208;-69
2021/05/27 10:08:52;;;;;;;2.67;2.33;;;16.00;78.00;;;;;;5105206;28;20296;-69
2021/05/27 10:11:20;;;;;;;2.22;2.03;;;15.90;76.00;;;;;;5106362;28;20248;-69
2021/05/27 10:13:47;;;;;;;3.63;2.00;;;15.80;77.30;;;;;;5106682;28;20962;-70
2021/05/27 10:16:14;;;;;;;2.20;2.10;;;15.70;78.60;;;;;;5106970;28;20227;-68
2021/05/27 10:18:42;;;;;;;2.33;2.20;;;15.40;78.50;;;;;;5105317;28;20199;-70
2021/05/27 10:21:10;;;;;;;2.67;1.90;;;15.20;79.20;;;;;;5102424;28;20200;-69
2021/05/27 10:23:36;;;;;;;2.10;1.85;;;15.00;79.70;;;;;;5106490;28;20215;-71
2021/05/27 10:26:03;;;;;;;1.95;1.85;;;15.00;80.50;;;;;;5106286;28;21009;-69
2021/05/27 10:28:30;;;;;;;2.15;2.05;;;15.20;80.90;;;;;;5102996;28;20291;-69
2021/05/27 10:30:56;;;;;;;2.50;2.30;;;15.80;81.60;;;;;;5106790;28;20199;-71
2021/05/27 10:33:24;;;;;;;2.55;1.75;;;16.10;80.10;;;;;;5106611;28;20290;-72
2021/05/27 10:35:54;;;;;;;1.70;1.60;;;16.30;79.50;;;;;;5107087;28;20210;-69
2021/05/27 10:38:48;;;;;;;1.88;1.63;;;16.30;77.50;;;;;;5106311;28;20230;-69
2021/05/27 10:41:16;;;;;;;2.28;2.17;;;16.20;79.70;;;;;;5107331;28;20203;-69
2021/05/27 10:44:09;;;;;;;1.85;1.75;;;16.10;77.00;;;;;;5101932;28;20693;-70
2021/05/27 10:47:06;;;;;;;1.70;1.60;;;15.90;78.80;;;;;;5103502;28;20207;-69
2021/05/27 10:49:52;;;;;;;2.80;1.92;;;15.70;81.00;;;;;;5102484;28;20633;-69
2021/05/27 10:52:44;;;;;;;4.05;2.15;;;15.40;80.40;;;;;;5103944;28;20203;-69
2021/05/27 10:55:51;;;;;;;1.42;1.40;;;15.10;81.70;;;;;;5104919;28;20674;-69
2021/05/27 10:58:17;;;;;;;1.70;1.60;;;15.00;81.40;;;;;;5094930;28;20223;-70
2021/05/27 11:00:54;;;;;;;1.40;1.30;;;14.80;82.30;;;;;;5102240;28;20288;-69
2021/05/27 11:03:44;;;;;;;2.33;2.20;;;14.70;83.10;;;;;;5105890;28;20194;-70
2021/05/27 11:06:25;;;;;;;2.10;2.00;;;14.50;81.60;;;;;;5105520;28;20203;-69
2021/05/27 11:09:39;;;;;;;2.53;2.33;;;14.40;83.40;;;;;;5104400;28;20680;-69
2021/05/27 11:12:21;;;;;;;2.45;2.20;;;14.50;83.80;;;;;;5018679;28;20693;-69
2021/05/27 11:15:04;;;;;;;2.58;2.38;;;14.70;84.90;;;;;;5103378;28;20203;-69
2021/05/27 11:17:31;;;;;;;2.97;2.78;;;14.80;84.20;;;;;;5105973;28;20231;-69
2021/05/27 11:20:00;;;;;;;2.88;2.50;;;15.10;82.50;;;;;;5106211;28;20222;-69
2021/05/27 11:22:56;;;;;;;2.35;2.15;;;15.40;83.00;;;;;;5097459;28;20265;-69
2021/05/27 11:25:36;;;;;;;1.90;1.80;;;15.90;84.30;;;;;;5102965;28;20252;-69
2021/05/27 11:28:27;;;;;;;2.10;2.00;;;16.20;81.10;;;;;;5095906;28;20215;-69
2021/05/27 11:30:56;;;;;;;2.35;2.25;;;16.50;83.10;;;;;;5106127;28;20295;-69
2021/05/27 11:33:34;;;;;;;2.30;2.10;;;16.60;80.30;;;;;;5104768;28;20195;-69
2021/05/27 11:36:06;;;;;;;3.42;2.50;;;16.90;78.20;;;;;;5099982;28;20191;-70
2021/05/27 11:38:35;;;;;;;2.47;2.25;;;17.00;79.40;;;;;;5104347;28;20222;-69
2021/05/27 11:41:04;;;;;;;2.60;2.40;;;17.30;80.50;;;;;;5105296;28;20214;-69
2021/05/27 11:43:33;;;;;;;2.20;2.00;;;17.80;79.40;;;;;;5104652;28;20199;-69
2021/05/27 11:46:04;;;;;;;1.80;1.70;;;18.30;79.20;;;;;;5102217;28;20231;-69
2021/05/27 11:48:34;;;;;;;2.13;2.03;;;18.60;74.40;;;;;;5104037;28;20629;-69
2021/05/27 11:51:04;;;;;;;2.10;2.00;;;18.90;74.10;;;;;;5105057;28;20629;-69
2021/05/27 11:53:47;;;;;;;3.60;2.10;;;18.50;72.00;;;;;;5100594;28;20728;-69
2021/05/27 11:56:34;;;;;;;2.17;1.80;;;18.70;74.80;;;;;;5107963;28;20624;-70
2021/05/27 11:59:01;;;;;;;1.73;1.63;;;18.70;74.60;;;;;;5105451;28;20656;-69
2021/05/27 12:01:29;;;;;;;1.90;1.80;;;18.80;72.50;;;;;;5105925;28;20705;-70
2021/05/27 12:04:10;;;;;;;2.03;1.90;;;19.60;75.10;;;;;;5105424;28;20637;-70
2021/05/27 12:06:44;;;;;;;2.30;1.80;;;20.10;70.40;;;;;;5105554;28;20625;-70
2021/05/27 12:09:12;;;;;;;1.40;1.40;;;20.10;68.70;;;;;;5108155;28;20632;-70
2021/05/27 12:11:40;;;;;;;1.73;1.63;;;19.60;70.50;;;;;;5104604;28;21156;-69
2021/05/27 12:14:08;;;;;;;1.80;1.70;;;19.30;72.20;;;;;;5109784;28;21078;-70
2021/05/27 12:16:35;;;;;;;1.83;1.70;;;19.10;72.00;;;;;;5109522;28;20735;-70
2021/05/27 12:19:04;;;;;;;1.47;1.47;;;18.90;71.00;;;;;;5110097;28;20773;-70
2021/05/27 12:21:30;;;;;;;3.90;2.10;;;18.50;72.10;;;;;;5101181;28;22959;-70
2021/05/27 12:23:57;;;;;;;1.77;1.67;;;18.30;73.90;;;;;;5101122;28;20643;-68
2021/05/27 12:26:23;;;;;;;1.90;1.60;;;18.20;72.80;;;;;;5091736;28;20290;-67
2021/05/27 12:28:51;;;;;;;2.53;2.40;;;17.80;72.80;;;;;;5094807;28;20284;-68
2021/05/27 12:31:18;;;;;;;1.90;1.80;;;17.50;73.90;;;;;;5100344;28;20279;-67
2021/05/27 12:33:44;;;;;;;2.05;1.95;;;17.30;75.50;;;;;;5102005;28;20207;-67
2021/05/27 12:36:12;;;;;;;2.80;1.90;;;17.00;76.90;;;;;;5097035;28;20196;-68
2021/05/27 12:38:45;;;;;;;2.28;1.77;;;17.10;77.10;;;;;;5092115;28;20616;-68
2021/05/27 12:41:12;;;;;;;1.70;1.60;;;17.70;79.60;;;;;;5106290;28;20202;-67
2021/05/27 12:43:41;;;;;;;1.75;1.65;;;18.30;74.00;;;;;;5104141;28;20207;-67
2021/05/27 12:46:09;;;;;;;2.47;1.95;;;18.70;73.70;;;;;;5104817;28;20227;-67
2021/05/27 12:48:48;;;;;;;1.50;1.45;;;18.70;72.30;;;;;;5100502;28;20202;-68
2021/05/27 12:51:15;;;;;;;1.50;1.40;;;18.90;73.60;;;;;;5099481;28;20192;-67
2021/05/27 12:53:49;;;;;;;1.60;1.50;;;19.20;71.90;;;;;;5099315;28;20626;-68
2021/05/27 12:56:18;;;;;;;1.53;1.53;;;19.40;71.10;;;;;;5105049;28;20230;-68
2021/05/27 12:58:46;;;;;;;1.50;1.40;;;19.30;70.00;;;;;;5104621;28;20680;-67
2021/05/27 13:01:13;;;;;;;1.90;1.80;;;19.20;71.00;;;;;;5101268;28;20661;-67
2021/05/27 13:03:47;;;;;;;1.40;1.30;;;18.90;72.10;;;;;;5103772;28;20637;-68
2021/05/27 13:06:15;;;;;;;2.50;2.27;;;18.70;73.90;;;;;;5102223;28;20208;-68